sensor_id;sensor_type;location;lat;lon;timestamp;P1;durP1;ratioP1;P2;durP2;ratioP2
1601;SDS011;794;48.592;9.634;2022-10-31T00:00:18;4.93;;;2.23;;
1601;SDS011;794;48.592;9.634;2022-10-31T00:02:45;8.20;;;2.37;;
1601;SDS011;794;48.592;9.634;2022-10-31T00:05:13;5.00;;;3.10;;
1601;SDS011;794;48.592;9.634;2022-10-31T00:07:40;5.03;;;2.47;;
1601;SDS011;794;48.592;9.634;2022-10-31T00:10:08;8.37;;;2.90;;
1601;SDS011;794;48.592;9.634;2022-10-31T00:12:35;2.70;;;2.20;;
1601;SDS011;794;48.592;9.634;2022-10-31T00:15:03;3.80;;;2.20;;
1601;SDS011;794;48.592;9.634;2022-10-31T00:17:30;8.00;;;2.10;;
1601;SDS011;794;48.592;9.634;2022-10-31T00:19:57;5.00;;;2.17;;
1601;SDS011;794;48.592;9.634;2022-10-31T00:22:26;6.03;;;2.30;;
1601;SDS011;794;48.592;9.634;2022-10-31T00:24:53;6.80;;;2.43;;
1601;SDS011;794;48.592;9.634;2022-10-31T00:27:20;4.20;;;2.47;;
1601;SDS011;794;48.592;9.634;2022-10-31T00:29:47;10.20;;;2.80;;
1601;SDS011;794;48.592;9.634;2022-10-31T00:32:14;4.70;;;2.80;;
1601;SDS011;794;48.592;9.634;2022-10-31T00:34:42;13.07;;;2.50;;
1601;SDS011;794;48.592;9.634;2022-10-31T00:37:09;4.30;;;2.30;;
1601;SDS011;794;48.592;9.634;2022-10-31T00:39:37;8.60;;;2.40;;
1601;SDS011;794;48.592;9.634;2022-10-31T00:42:04;5.33;;;2.10;;
1601;SDS011;794;48.592;9.634;2022-10-31T00:44:31;3.93;;;2.00;;
1601;SDS011;794;48.592;9.634;2022-10-31T00:46:58;3.17;;;2.63;;
1601;SDS011;794;48.592;9.634;2022-10-31T00:49:25;5.03;;;2.50;;
1601;SDS011;794;48.592;9.634;2022-10-31T00:51:52;3.67;;;2.37;;
1601;SDS011;794;48.592;9.634;2022-10-31T00:54:19;4.43;;;2.10;;
1601;SDS011;794;48.592;9.634;2022-10-31T00:56:48;5.60;;;2.37;;
1601;SDS011;794;48.592;9.634;2022-10-31T00:59:15;6.27;;;2.33;;
1601;SDS011;794;48.592;9.634;2022-10-31T01:01:42;3.77;;;2.30;;
1601;SDS011;794;48.592;9.634;2022-10-31T01:04:09;4.80;;;3.37;;
1601;SDS011;794;48.592;9.634;2022-10-31T01:06:36;10.87;;;2.83;;
1601;SDS011;794;48.592;9.634;2022-10-31T01:09:04;2.63;;;2.03;;
1601;SDS011;794;48.592;9.634;2022-10-31T01:11:31;3.80;;;1.80;;
1601;SDS011;794;48.592;9.634;2022-10-31T01:13:59;8.60;;;2.77;;
1601;SDS011;794;48.592;9.634;2022-10-31T01:16:26;2.70;;;2.10;;
1601;SDS011;794;48.592;9.634;2022-10-31T01:18:54;4.17;;;2.00;;
1601;SDS011;794;48.592;9.634;2022-10-31T01:21:25;14.80;;;2.60;;
1601;SDS011;794;48.592;9.634;2022-10-31T01:23:54;2.40;;;1.97;;
1601;SDS011;794;48.592;9.634;2022-10-31T01:26:23;6.90;;;2.70;;
1601;SDS011;794;48.592;9.634;2022-10-31T01:28:52;4.07;;;2.47;;
1601;SDS011;794;48.592;9.634;2022-10-31T01:31:22;6.53;;;2.80;;
1601;SDS011;794;48.592;9.634;2022-10-31T01:33:50;6.10;;;2.20;;
1601;SDS011;794;48.592;9.634;2022-10-31T01:36:17;11.00;;;3.17;;
1601;SDS011;794;48.592;9.634;2022-10-31T01:38:46;4.57;;;2.70;;
1601;SDS011;794;48.592;9.634;2022-10-31T01:41:14;7.87;;;4.03;;
1601;SDS011;794;48.592;9.634;2022-10-31T01:43:43;3.13;;;1.90;;
1601;SDS011;794;48.592;9.634;2022-10-31T01:46:12;3.80;;;2.13;;
1601;SDS011;794;48.592;9.634;2022-10-31T01:48:42;3.80;;;2.70;;
1601;SDS011;794;48.592;9.634;2022-10-31T01:51:09;6.13;;;2.47;;
1601;SDS011;794;48.592;9.634;2022-10-31T01:53:38;8.00;;;3.33;;
1601;SDS011;794;48.592;9.634;2022-10-31T01:56:07;6.07;;;2.70;;
1601;SDS011;794;48.592;9.634;2022-10-31T01:58:34;3.93;;;2.17;;
1601;SDS011;794;48.592;9.634;2022-10-31T02:01:02;5.83;;;3.23;;
1601;SDS011;794;48.592;9.634;2022-10-31T02:03:29;3.73;;;2.30;;
1601;SDS011;794;48.592;9.634;2022-10-31T02:05:59;6.60;;;3.03;;
1601;SDS011;794;48.592;9.634;2022-10-31T02:08:27;2.40;;;2.20;;
1601;SDS011;794;48.592;9.634;2022-10-31T02:10:55;7.90;;;2.67;;
1601;SDS011;794;48.592;9.634;2022-10-31T02:13:23;5.00;;;3.13;;
1601;SDS011;794;48.592;9.634;2022-10-31T02:15:51;5.37;;;2.50;;
1601;SDS011;794;48.592;9.634;2022-10-31T02:18:19;4.03;;;2.63;;
1601;SDS011;794;48.592;9.634;2022-10-31T02:20:49;3.97;;;2.80;;
1601;SDS011;794;48.592;9.634;2022-10-31T02:23:31;3.60;;;2.40;;
1601;SDS011;794;48.592;9.634;2022-10-31T02:26:49;2.67;;;2.40;;
1601;SDS011;794;48.592;9.634;2022-10-31T02:29:37;4.33;;;3.23;;
1601;SDS011;794;48.592;9.634;2022-10-31T02:32:33;2.90;;;2.30;;
1601;SDS011;794;48.592;9.634;2022-10-31T02:35:10;5.47;;;3.00;;
1601;SDS011;794;48.592;9.634;2022-10-31T02:37:44;10.80;;;3.63;;
1601;SDS011;794;48.592;9.634;2022-10-31T02:40:19;8.10;;;2.90;;
1601;SDS011;794;48.592;9.634;2022-10-31T02:42:50;6.57;;;3.23;;
1601;SDS011;794;48.592;9.634;2022-10-31T02:45:25;8.00;;;3.13;;
1601;SDS011;794;48.592;9.634;2022-10-31T02:47:58;3.10;;;2.37;;
1601;SDS011;794;48.592;9.634;2022-10-31T02:50:30;6.30;;;3.17;;
1601;SDS011;794;48.592;9.634;2022-10-31T02:53:01;4.97;;;2.73;;
1601;SDS011;794;48.592;9.634;2022-10-31T02:58:24;3.23;;;2.57;;
1601;SDS011;794;48.592;9.634;2022-10-31T03:01:07;8.23;;;3.63;;
1601;SDS011;794;48.592;9.634;2022-10-31T03:03:49;2.60;;;2.40;;
1601;SDS011;794;48.592;9.634;2022-10-31T03:06:29;5.20;;;2.90;;
1601;SDS011;794;48.592;9.634;2022-10-31T03:09:02;8.40;;;3.47;;
1601;SDS011;794;48.592;9.634;2022-10-31T03:11:37;5.03;;;3.30;;
1601;SDS011;794;48.592;9.634;2022-10-31T03:14:11;5.70;;;3.10;;
1601;SDS011;794;48.592;9.634;2022-10-31T03:16:45;7.00;;;3.90;;
1601;SDS011;794;48.592;9.634;2022-10-31T03:19:16;5.33;;;3.53;;
1601;SDS011;794;48.592;9.634;2022-10-31T03:21:46;6.40;;;3.13;;
1601;SDS011;794;48.592;9.634;2022-10-31T03:24:18;6.57;;;3.20;;
1601;SDS011;794;48.592;9.634;2022-10-31T03:26:51;4.53;;;3.20;;
1601;SDS011;794;48.592;9.634;2022-10-31T03:29:21;6.37;;;2.90;;
1601;SDS011;794;48.592;9.634;2022-10-31T03:31:52;3.80;;;2.67;;
1601;SDS011;794;48.592;9.634;2022-10-31T03:34:23;3.57;;;2.87;;
1601;SDS011;794;48.592;9.634;2022-10-31T03:36:52;4.57;;;3.10;;
1601;SDS011;794;48.592;9.634;2022-10-31T03:39:23;7.73;;;3.30;;
1601;SDS011;794;48.592;9.634;2022-10-31T03:41:53;7.77;;;3.33;;
1601;SDS011;794;48.592;9.634;2022-10-31T03:44:23;6.67;;;4.67;;
1601;SDS011;794;48.592;9.634;2022-10-31T03:46:52;5.23;;;3.20;;
1601;SDS011;794;48.592;9.634;2022-10-31T03:49:19;6.50;;;4.07;;
1601;SDS011;794;48.592;9.634;2022-10-31T03:51:49;7.00;;;6.10;;
1601;SDS011;794;48.592;9.634;2022-10-31T03:54:25;8.10;;;3.30;;
1601;SDS011;794;48.592;9.634;2022-10-31T03:56:57;5.90;;;3.70;;
1601;SDS011;794;48.592;9.634;2022-10-31T03:59:31;4.40;;;3.07;;
1601;SDS011;794;48.592;9.634;2022-10-31T04:02:03;3.03;;;2.73;;
1601;SDS011;794;48.592;9.634;2022-10-31T04:04:33;4.77;;;3.13;;
1601;SDS011;794;48.592;9.634;2022-10-31T04:07:02;8.03;;;3.27;;
1601;SDS011;794;48.592;9.634;2022-10-31T04:09:32;5.07;;;3.40;;
1601;SDS011;794;48.592;9.634;2022-10-31T04:12:02;9.03;;;3.47;;
1601;SDS011;794;48.592;9.634;2022-10-31T04:14:31;9.90;;;2.73;;
1601;SDS011;794;48.592;9.634;2022-10-31T04:17:01;3.97;;;3.13;;
1601;SDS011;794;48.592;9.634;2022-10-31T04:19:32;6.40;;;3.50;;
1601;SDS011;794;48.592;9.634;2022-10-31T04:21:59;4.70;;;3.17;;
1601;SDS011;794;48.592;9.634;2022-10-31T04:24:27;6.63;;;3.57;;
1601;SDS011;794;48.592;9.634;2022-10-31T04:26:54;3.33;;;3.03;;
1601;SDS011;794;48.592;9.634;2022-10-31T04:29:21;6.13;;;3.40;;
1601;SDS011;794;48.592;9.634;2022-10-31T04:31:49;4.13;;;2.70;;
1601;SDS011;794;48.592;9.634;2022-10-31T04:34:16;7.07;;;3.20;;
1601;SDS011;794;48.592;9.634;2022-10-31T04:36:44;2.93;;;2.60;;
1601;SDS011;794;48.592;9.634;2022-10-31T04:39:11;4.60;;;3.23;;
1601;SDS011;794;48.592;9.634;2022-10-31T04:41:39;4.53;;;3.37;;
1601;SDS011;794;48.592;9.634;2022-10-31T04:44:06;5.80;;;2.80;;
1601;SDS011;794;48.592;9.634;2022-10-31T04:46:33;12.50;;;3.57;;
1601;SDS011;794;48.592;9.634;2022-10-31T04:49:00;6.70;;;3.90;;
1601;SDS011;794;48.592;9.634;2022-10-31T04:51:28;6.37;;;2.90;;
1601;SDS011;794;48.592;9.634;2022-10-31T04:53:55;5.10;;;3.80;;
1601;SDS011;794;48.592;9.634;2022-10-31T04:56:22;5.07;;;4.13;;
1601;SDS011;794;48.592;9.634;2022-10-31T04:58:51;5.77;;;3.50;;
1601;SDS011;794;48.592;9.634;2022-10-31T05:01:18;6.43;;;3.20;;
1601;SDS011;794;48.592;9.634;2022-10-31T05:03:45;4.30;;;2.93;;
1601;SDS011;794;48.592;9.634;2022-10-31T05:06:12;4.00;;;3.23;;
1601;SDS011;794;48.592;9.634;2022-10-31T05:08:39;5.40;;;3.40;;
1601;SDS011;794;48.592;9.634;2022-10-31T05:11:06;5.97;;;3.60;;
1601;SDS011;794;48.592;9.634;2022-10-31T05:13:33;9.23;;;3.73;;
1601;SDS011;794;48.592;9.634;2022-10-31T05:16:02;4.03;;;3.27;;
1601;SDS011;794;48.592;9.634;2022-10-31T05:18:29;5.93;;;4.00;;
1601;SDS011;794;48.592;9.634;2022-10-31T05:20:56;5.20;;;4.70;;
1601;SDS011;794;48.592;9.634;2022-10-31T05:23:23;4.70;;;3.43;;
1601;SDS011;794;48.592;9.634;2022-10-31T05:25:50;7.03;;;4.63;;
1601;SDS011;794;48.592;9.634;2022-10-31T05:28:18;6.57;;;4.13;;
1601;SDS011;794;48.592;9.634;2022-10-31T05:30:45;7.87;;;4.40;;
1601;SDS011;794;48.592;9.634;2022-10-31T05:33:14;5.00;;;4.23;;
1601;SDS011;794;48.592;9.634;2022-10-31T05:35:40;8.67;;;4.17;;
1601;SDS011;794;48.592;9.634;2022-10-31T05:38:07;4.70;;;3.90;;
1601;SDS011;794;48.592;9.634;2022-10-31T05:40:34;4.70;;;4.17;;
1601;SDS011;794;48.592;9.634;2022-10-31T05:43:01;3.47;;;3.17;;
1601;SDS011;794;48.592;9.634;2022-10-31T05:45:28;4.43;;;3.30;;
1601;SDS011;794;48.592;9.634;2022-10-31T05:47:56;4.80;;;3.57;;
1601;SDS011;794;48.592;9.634;2022-10-31T05:50:25;5.43;;;2.90;;
1601;SDS011;794;48.592;9.634;2022-10-31T05:52:54;3.93;;;3.40;;
1601;SDS011;794;48.592;9.634;2022-10-31T05:55:22;5.90;;;3.10;;
1601;SDS011;794;48.592;9.634;2022-10-31T05:57:50;4.03;;;3.10;;
1601;SDS011;794;48.592;9.634;2022-10-31T06:00:18;4.90;;;3.00;;
1601;SDS011;794;48.592;9.634;2022-10-31T06:02:45;4.50;;;3.03;;
1601;SDS011;794;48.592;9.634;2022-10-31T06:05:13;5.13;;;4.63;;
1601;SDS011;794;48.592;9.634;2022-10-31T06:07:42;6.03;;;5.20;;
1601;SDS011;794;48.592;9.634;2022-10-31T06:10:10;8.13;;;5.10;;
1601;SDS011;794;48.592;9.634;2022-10-31T06:12:37;8.60;;;4.73;;
1601;SDS011;794;48.592;9.634;2022-10-31T06:15:06;10.57;;;4.40;;
1601;SDS011;794;48.592;9.634;2022-10-31T06:17:34;4.57;;;3.80;;
1601;SDS011;794;48.592;9.634;2022-10-31T06:20:01;8.57;;;3.83;;
1601;SDS011;794;48.592;9.634;2022-10-31T06:22:30;10.83;;;3.93;;
1601;SDS011;794;48.592;9.634;2022-10-31T06:24:58;6.03;;;4.00;;
1601;SDS011;794;48.592;9.634;2022-10-31T06:27:25;5.70;;;4.13;;
1601;SDS011;794;48.592;9.634;2022-10-31T06:29:52;4.43;;;3.20;;
1601;SDS011;794;48.592;9.634;2022-10-31T06:32:20;6.53;;;3.57;;
1601;SDS011;794;48.592;9.634;2022-10-31T06:34:47;5.90;;;4.17;;
1601;SDS011;794;48.592;9.634;2022-10-31T06:37:14;5.20;;;3.77;;
1601;SDS011;794;48.592;9.634;2022-10-31T06:39:41;4.60;;;3.90;;
1601;SDS011;794;48.592;9.634;2022-10-31T06:42:10;9.50;;;3.23;;
1601;SDS011;794;48.592;9.634;2022-10-31T06:44:37;4.87;;;3.30;;
1601;SDS011;794;48.592;9.634;2022-10-31T06:47:05;4.33;;;2.63;;
1601;SDS011;794;48.592;9.634;2022-10-31T06:49:32;3.23;;;2.93;;
1601;SDS011;794;48.592;9.634;2022-10-31T06:51:59;4.43;;;2.90;;
1601;SDS011;794;48.592;9.634;2022-10-31T06:54:26;8.30;;;3.67;;
1601;SDS011;794;48.592;9.634;2022-10-31T06:56:54;8.23;;;4.47;;
1601;SDS011;794;48.592;9.634;2022-10-31T06:59:22;6.57;;;3.60;;
1601;SDS011;794;48.592;9.634;2022-10-31T07:01:51;6.50;;;3.80;;
1601;SDS011;794;48.592;9.634;2022-10-31T07:04:18;5.47;;;3.07;;
1601;SDS011;794;48.592;9.634;2022-10-31T07:06:45;5.50;;;3.60;;
1601;SDS011;794;48.592;9.634;2022-10-31T07:09:12;6.40;;;3.70;;
1601;SDS011;794;48.592;9.634;2022-10-31T07:11:39;8.43;;;3.97;;
1601;SDS011;794;48.592;9.634;2022-10-31T07:14:07;6.87;;;3.90;;
1601;SDS011;794;48.592;9.634;2022-10-31T07:16:35;7.07;;;3.40;;
1601;SDS011;794;48.592;9.634;2022-10-31T07:19:05;7.40;;;3.90;;
1601;SDS011;794;48.592;9.634;2022-10-31T07:21:33;4.73;;;3.90;;
1601;SDS011;794;48.592;9.634;2022-10-31T07:24:02;7.27;;;3.90;;
1601;SDS011;794;48.592;9.634;2022-10-31T07:26:29;8.07;;;3.97;;
1601;SDS011;794;48.592;9.634;2022-10-31T07:28:56;5.30;;;3.57;;
1601;SDS011;794;48.592;9.634;2022-10-31T07:31:24;5.13;;;3.73;;
1601;SDS011;794;48.592;9.634;2022-10-31T07:33:52;9.67;;;3.50;;
1601;SDS011;794;48.592;9.634;2022-10-31T07:36:19;6.67;;;4.07;;
1601;SDS011;794;48.592;9.634;2022-10-31T07:38:46;4.57;;;3.43;;
1601;SDS011;794;48.592;9.634;2022-10-31T07:41:13;5.40;;;4.00;;
1601;SDS011;794;48.592;9.634;2022-10-31T07:43:40;3.83;;;2.97;;
1601;SDS011;794;48.592;9.634;2022-10-31T07:46:10;4.50;;;2.80;;
1601;SDS011;794;48.592;9.634;2022-10-31T07:48:37;5.63;;;3.00;;
1601;SDS011;794;48.592;9.634;2022-10-31T07:51:06;3.90;;;2.80;;
1601;SDS011;794;48.592;9.634;2022-10-31T07:53:35;8.60;;;3.70;;
1601;SDS011;794;48.592;9.634;2022-10-31T07:56:02;8.37;;;3.60;;
1601;SDS011;794;48.592;9.634;2022-10-31T07:58:31;7.70;;;3.83;;
1601;SDS011;794;48.592;9.634;2022-10-31T08:01:06;4.00;;;3.23;;
1601;SDS011;794;48.592;9.634;2022-10-31T08:03:35;4.30;;;2.40;;
1601;SDS011;794;48.592;9.634;2022-10-31T08:06:02;20.03;;;4.33;;
1601;SDS011;794;48.592;9.634;2022-10-31T08:08:32;19.83;;;4.90;;
1601;SDS011;794;48.592;9.634;2022-10-31T08:11:05;13.90;;;4.80;;
1601;SDS011;794;48.592;9.634;2022-10-31T08:13:32;12.43;;;4.13;;
1601;SDS011;794;48.592;9.634;2022-10-31T08:16:08;9.33;;;3.10;;
1601;SDS011;794;48.592;9.634;2022-10-31T08:18:38;12.33;;;3.37;;
1601;SDS011;794;48.592;9.634;2022-10-31T08:21:08;12.27;;;4.17;;
1601;SDS011;794;48.592;9.634;2022-10-31T08:23:43;9.07;;;3.67;;
1601;SDS011;794;48.592;9.634;2022-10-31T08:26:12;12.80;;;4.00;;
1601;SDS011;794;48.592;9.634;2022-10-31T08:28:39;6.10;;;4.40;;
1601;SDS011;794;48.592;9.634;2022-10-31T08:31:05;13.27;;;5.43;;
1601;SDS011;794;48.592;9.634;2022-10-31T08:33:35;5.23;;;4.30;;
1601;SDS011;794;48.592;9.634;2022-10-31T08:36:05;7.33;;;4.80;;
1601;SDS011;794;48.592;9.634;2022-10-31T08:38:32;9.77;;;5.73;;
1601;SDS011;794;48.592;9.634;2022-10-31T08:41:07;10.90;;;5.70;;
1601;SDS011;794;48.592;9.634;2022-10-31T08:43:39;9.77;;;5.27;;
1601;SDS011;794;48.592;9.634;2022-10-31T08:46:06;8.03;;;5.40;;
1601;SDS011;794;48.592;9.634;2022-10-31T08:48:33;13.73;;;7.37;;
1601;SDS011;794;48.592;9.634;2022-10-31T08:51:07;14.43;;;7.03;;
1601;SDS011;794;48.592;9.634;2022-10-31T08:53:35;17.80;;;8.30;;
1601;SDS011;794;48.592;9.634;2022-10-31T08:56:03;12.97;;;8.67;;
1601;SDS011;794;48.592;9.634;2022-10-31T08:58:34;13.30;;;9.63;;
1601;SDS011;794;48.592;9.634;2022-10-31T09:01:04;11.97;;;9.50;;
1601;SDS011;794;48.592;9.634;2022-10-31T09:03:31;15.73;;;9.37;;
1601;SDS011;794;48.592;9.634;2022-10-31T09:06:01;19.60;;;9.70;;
1601;SDS011;794;48.592;9.634;2022-10-31T09:08:33;17.37;;;9.97;;
1601;SDS011;794;48.592;9.634;2022-10-31T09:11:01;11.53;;;9.57;;
1601;SDS011;794;48.592;9.634;2022-10-31T09:13:31;12.87;;;9.30;;
1601;SDS011;794;48.592;9.634;2022-10-31T09:15:57;15.10;;;9.30;;
1601;SDS011;794;48.592;9.634;2022-10-31T09:18:25;16.20;;;10.90;;
1601;SDS011;794;48.592;9.634;2022-10-31T09:20:57;13.07;;;9.07;;
1601;SDS011;794;48.592;9.634;2022-10-31T09:23:24;12.17;;;9.10;;
1601;SDS011;794;48.592;9.634;2022-10-31T09:25:53;9.07;;;7.77;;
1601;SDS011;794;48.592;9.634;2022-10-31T09:28:21;16.13;;;8.37;;
1601;SDS011;794;48.592;9.634;2022-10-31T09:30:54;15.93;;;9.07;;
1601;SDS011;794;48.592;9.634;2022-10-31T09:33:21;14.03;;;9.37;;
1601;SDS011;794;48.592;9.634;2022-10-31T09:35:48;12.37;;;8.97;;
1601;SDS011;794;48.592;9.634;2022-10-31T09:38:16;15.97;;;9.53;;
1601;SDS011;794;48.592;9.634;2022-10-31T09:40:45;14.37;;;9.00;;
1601;SDS011;794;48.592;9.634;2022-10-31T09:43:15;15.07;;;9.60;;
1601;SDS011;794;48.592;9.634;2022-10-31T09:45:49;15.97;;;9.30;;
1601;SDS011;794;48.592;9.634;2022-10-31T09:48:29;20.00;;;8.30;;
1601;SDS011;794;48.592;9.634;2022-10-31T09:51:03;14.27;;;8.83;;
1601;SDS011;794;48.592;9.634;2022-10-31T09:53:34;14.77;;;8.03;;
1601;SDS011;794;48.592;9.634;2022-10-31T09:56:04;12.20;;;9.57;;
1601;SDS011;794;48.592;9.634;2022-10-31T09:58:37;24.60;;;8.10;;
1601;SDS011;794;48.592;9.634;2022-10-31T10:01:16;17.33;;;9.87;;
1601;SDS011;794;48.592;9.634;2022-10-31T10:03:54;13.90;;;8.03;;
1601;SDS011;794;48.592;9.634;2022-10-31T10:06:24;16.33;;;8.90;;
1601;SDS011;794;48.592;9.634;2022-10-31T10:08:54;16.50;;;7.80;;
1601;SDS011;794;48.592;9.634;2022-10-31T10:11:35;13.80;;;7.93;;
1601;SDS011;794;48.592;9.634;2022-10-31T10:17:09;13.03;;;7.60;;
1601;SDS011;794;48.592;9.634;2022-10-31T10:19:47;10.73;;;7.20;;
1601;SDS011;794;48.592;9.634;2022-10-31T10:22:23;11.77;;;8.37;;
1601;SDS011;794;48.592;9.634;2022-10-31T10:25:09;15.00;;;7.93;;
1601;SDS011;794;48.592;9.634;2022-10-31T10:27:46;16.03;;;6.57;;
1601;SDS011;794;48.592;9.634;2022-10-31T10:30:19;12.97;;;7.10;;
1601;SDS011;794;48.592;9.634;2022-10-31T10:32:49;10.70;;;6.80;;
1601;SDS011;794;48.592;9.634;2022-10-31T10:35:21;13.70;;;7.77;;
1601;SDS011;794;48.592;9.634;2022-10-31T10:37:52;14.27;;;6.63;;
1601;SDS011;794;48.592;9.634;2022-10-31T10:40:25;10.07;;;6.77;;
1601;SDS011;794;48.592;9.634;2022-10-31T10:42:56;9.53;;;6.47;;
1601;SDS011;794;48.592;9.634;2022-10-31T10:45:47;9.70;;;6.63;;
1601;SDS011;794;48.592;9.634;2022-10-31T10:48:39;13.90;;;7.30;;
1601;SDS011;794;48.592;9.634;2022-10-31T10:51:17;14.23;;;6.63;;
1601;SDS011;794;48.592;9.634;2022-10-31T10:54:00;10.40;;;6.70;;
1601;SDS011;794;48.592;9.634;2022-10-31T10:56:44;9.90;;;5.67;;
1601;SDS011;794;48.592;9.634;2022-10-31T10:59:20;11.87;;;5.93;;
1601;SDS011;794;48.592;9.634;2022-10-31T11:01:48;15.43;;;6.53;;
1601;SDS011;794;48.592;9.634;2022-10-31T11:04:32;11.03;;;7.17;;
1601;SDS011;794;48.592;9.634;2022-10-31T11:07:00;10.83;;;5.70;;
1601;SDS011;794;48.592;9.634;2022-10-31T11:09:28;12.07;;;5.60;;
1601;SDS011;794;48.592;9.634;2022-10-31T11:11:55;14.50;;;6.37;;
1601;SDS011;794;48.592;9.634;2022-10-31T11:14:25;9.47;;;5.70;;
1601;SDS011;794;48.592;9.634;2022-10-31T11:16:54;13.33;;;5.53;;
1601;SDS011;794;48.592;9.634;2022-10-31T11:19:36;11.33;;;5.27;;
1601;SDS011;794;48.592;9.634;2022-10-31T11:22:07;10.37;;;5.17;;
1601;SDS011;794;48.592;9.634;2022-10-31T11:24:42;13.70;;;4.90;;
1601;SDS011;794;48.592;9.634;2022-10-31T11:27:12;9.60;;;5.63;;
1601;SDS011;794;48.592;9.634;2022-10-31T11:29:41;9.30;;;4.90;;
1601;SDS011;794;48.592;9.634;2022-10-31T11:32:20;8.87;;;5.30;;
1601;SDS011;794;48.592;9.634;2022-10-31T11:34:51;9.13;;;4.30;;
1601;SDS011;794;48.592;9.634;2022-10-31T11:37:21;13.13;;;5.80;;
1601;SDS011;794;48.592;9.634;2022-10-31T11:39:51;9.70;;;5.97;;
1601;SDS011;794;48.592;9.634;2022-10-31T11:42:20;8.30;;;5.40;;
1601;SDS011;794;48.592;9.634;2022-10-31T11:44:49;14.03;;;6.73;;
1601;SDS011;794;48.592;9.634;2022-10-31T11:47:25;10.83;;;4.40;;
1601;SDS011;794;48.592;9.634;2022-10-31T11:49:56;8.47;;;4.60;;
1601;SDS011;794;48.592;9.634;2022-10-31T11:52:27;11.00;;;4.47;;
1601;SDS011;794;48.592;9.634;2022-10-31T11:54:58;10.50;;;4.70;;
1601;SDS011;794;48.592;9.634;2022-10-31T11:57:27;8.27;;;5.07;;
1601;SDS011;794;48.592;9.634;2022-10-31T11:59:56;10.23;;;5.10;;
1601;SDS011;794;48.592;9.634;2022-10-31T12:02:24;11.53;;;4.17;;
1601;SDS011;794;48.592;9.634;2022-10-31T12:04:57;9.90;;;4.10;;
1601;SDS011;794;48.592;9.634;2022-10-31T12:07:28;21.03;;;5.53;;
1601;SDS011;794;48.592;9.634;2022-10-31T12:09:55;4.50;;;3.83;;
1601;SDS011;794;48.592;9.634;2022-10-31T12:12:26;7.30;;;3.67;;
1601;SDS011;794;48.592;9.634;2022-10-31T12:18:02;6.83;;;3.47;;
1601;SDS011;794;48.592;9.634;2022-10-31T12:20:52;5.03;;;4.43;;
1601;SDS011;794;48.592;9.634;2022-10-31T12:23:29;5.23;;;3.50;;
1601;SDS011;794;48.592;9.634;2022-10-31T12:26:12;9.90;;;4.17;;
1601;SDS011;794;48.592;9.634;2022-10-31T12:28:52;11.30;;;4.13;;
1601;SDS011;794;48.592;9.634;2022-10-31T12:31:36;5.20;;;3.33;;
1601;SDS011;794;48.592;9.634;2022-10-31T12:34:24;15.33;;;4.00;;
1601;SDS011;794;48.592;9.634;2022-10-31T12:37:22;13.33;;;3.50;;
1601;SDS011;794;48.592;9.634;2022-10-31T12:40:07;7.33;;;3.47;;
1601;SDS011;794;48.592;9.634;2022-10-31T12:42:51;7.23;;;4.17;;
1601;SDS011;794;48.592;9.634;2022-10-31T12:45:33;12.97;;;3.93;;
1601;SDS011;794;48.592;9.634;2022-10-31T12:51:08;9.50;;;5.00;;
1601;SDS011;794;48.592;9.634;2022-10-31T12:53:47;7.93;;;3.83;;
1601;SDS011;794;48.592;9.634;2022-10-31T12:56:29;7.97;;;4.00;;
1601;SDS011;794;48.592;9.634;2022-10-31T12:59:06;10.00;;;3.80;;
1601;SDS011;794;48.592;9.634;2022-10-31T13:01:41;6.40;;;3.80;;
1601;SDS011;794;48.592;9.634;2022-10-31T13:04:14;11.23;;;3.93;;
1601;SDS011;794;48.592;9.634;2022-10-31T13:06:46;14.83;;;4.27;;
1601;SDS011;794;48.592;9.634;2022-10-31T13:09:17;10.03;;;4.97;;
1601;SDS011;794;48.592;9.634;2022-10-31T13:11:50;9.87;;;4.27;;
1601;SDS011;794;48.592;9.634;2022-10-31T13:14:24;6.90;;;3.73;;
1601;SDS011;794;48.592;9.634;2022-10-31T13:16:56;8.17;;;4.57;;
1601;SDS011;794;48.592;9.634;2022-10-31T13:19:27;11.00;;;3.83;;
1601;SDS011;794;48.592;9.634;2022-10-31T13:21:58;7.40;;;4.20;;
1601;SDS011;794;48.592;9.634;2022-10-31T13:24:33;11.20;;;4.80;;
1601;SDS011;794;48.592;9.634;2022-10-31T13:27:07;9.20;;;3.70;;
1601;SDS011;794;48.592;9.634;2022-10-31T13:29:42;12.77;;;4.60;;
1601;SDS011;794;48.592;9.634;2022-10-31T13:32:16;10.30;;;4.27;;
1601;SDS011;794;48.592;9.634;2022-10-31T13:34:45;11.50;;;4.20;;
1601;SDS011;794;48.592;9.634;2022-10-31T13:37:16;10.20;;;5.50;;
1601;SDS011;794;48.592;9.634;2022-10-31T13:39:59;13.03;;;4.70;;
1601;SDS011;794;48.592;9.634;2022-10-31T13:42:50;10.80;;;5.93;;
1601;SDS011;794;48.592;9.634;2022-10-31T13:45:24;9.43;;;4.23;;
1601;SDS011;794;48.592;9.634;2022-10-31T13:47:57;6.00;;;4.70;;
1601;SDS011;794;48.592;9.634;2022-10-31T13:50:26;8.27;;;4.63;;
1601;SDS011;794;48.592;9.634;2022-10-31T13:53:09;14.30;;;4.43;;
1601;SDS011;794;48.592;9.634;2022-10-31T13:55:46;17.50;;;4.80;;
1601;SDS011;794;48.592;9.634;2022-10-31T13:58:21;5.30;;;4.40;;
1601;SDS011;794;48.592;9.634;2022-10-31T14:01:01;12.77;;;5.80;;
1601;SDS011;794;48.592;9.634;2022-10-31T14:03:41;9.80;;;6.00;;
1601;SDS011;794;48.592;9.634;2022-10-31T14:06:10;10.23;;;4.93;;
1601;SDS011;794;48.592;9.634;2022-10-31T14:08:40;7.47;;;5.07;;
1601;SDS011;794;48.592;9.634;2022-10-31T14:11:18;11.73;;;5.07;;
1601;SDS011;794;48.592;9.634;2022-10-31T14:13:51;11.40;;;4.70;;
1601;SDS011;794;48.592;9.634;2022-10-31T14:16:20;7.93;;;4.60;;
1601;SDS011;794;48.592;9.634;2022-10-31T14:18:51;5.57;;;3.83;;
1601;SDS011;794;48.592;9.634;2022-10-31T14:21:27;11.47;;;5.87;;
1601;SDS011;794;48.592;9.634;2022-10-31T14:23:55;14.47;;;5.50;;
1601;SDS011;794;48.592;9.634;2022-10-31T14:26:34;10.77;;;5.00;;
1601;SDS011;794;48.592;9.634;2022-10-31T14:31:55;8.40;;;4.67;;
1601;SDS011;794;48.592;9.634;2022-10-31T14:34:36;13.03;;;4.80;;
1601;SDS011;794;48.592;9.634;2022-10-31T14:40:05;11.37;;;6.03;;
1601;SDS011;794;48.592;9.634;2022-10-31T14:43:05;12.50;;;5.40;;
1601;SDS011;794;48.592;9.634;2022-10-31T14:45:59;10.83;;;6.20;;
1601;SDS011;794;48.592;9.634;2022-10-31T14:48:46;11.60;;;6.03;;
1601;SDS011;794;48.592;9.634;2022-10-31T14:51:25;9.70;;;5.40;;
1601;SDS011;794;48.592;9.634;2022-10-31T14:53:58;11.07;;;4.40;;
1601;SDS011;794;48.592;9.634;2022-10-31T14:56:28;9.80;;;5.17;;
1601;SDS011;794;48.592;9.634;2022-10-31T14:58:59;8.00;;;4.90;;
1601;SDS011;794;48.592;9.634;2022-10-31T15:01:29;7.97;;;4.90;;
1601;SDS011;794;48.592;9.634;2022-10-31T15:04:01;5.03;;;4.00;;
1601;SDS011;794;48.592;9.634;2022-10-31T15:06:31;9.87;;;4.10;;
1601;SDS011;794;48.592;9.634;2022-10-31T15:09:20;7.80;;;4.83;;
1601;SDS011;794;48.592;9.634;2022-10-31T15:11:48;10.87;;;4.60;;
1601;SDS011;794;48.592;9.634;2022-10-31T15:14:24;10.20;;;5.27;;
1601;SDS011;794;48.592;9.634;2022-10-31T15:16:53;9.50;;;4.37;;
1601;SDS011;794;48.592;9.634;2022-10-31T15:19:23;11.17;;;4.43;;
1601;SDS011;794;48.592;9.634;2022-10-31T15:21:52;9.13;;;4.97;;
1601;SDS011;794;48.592;9.634;2022-10-31T15:24:27;8.07;;;3.53;;
1601;SDS011;794;48.592;9.634;2022-10-31T15:27:04;8.43;;;5.17;;
1601;SDS011;794;48.592;9.634;2022-10-31T15:29:51;11.80;;;4.83;;
1601;SDS011;794;48.592;9.634;2022-10-31T15:32:20;9.90;;;5.03;;
1601;SDS011;794;48.592;9.634;2022-10-31T15:34:48;9.63;;;4.50;;
1601;SDS011;794;48.592;9.634;2022-10-31T15:37:17;8.17;;;4.87;;
1601;SDS011;794;48.592;9.634;2022-10-31T15:39:46;11.50;;;5.07;;
1601;SDS011;794;48.592;9.634;2022-10-31T15:42:16;9.13;;;4.57;;
1601;SDS011;794;48.592;9.634;2022-10-31T15:45:04;19.27;;;4.57;;
1601;SDS011;794;48.592;9.634;2022-10-31T15:47:44;11.33;;;5.20;;
1601;SDS011;794;48.592;9.634;2022-10-31T15:50:19;12.03;;;9.63;;
1601;SDS011;794;48.592;9.634;2022-10-31T15:52:54;11.13;;;5.80;;
1601;SDS011;794;48.592;9.634;2022-10-31T15:55:22;16.80;;;6.33;;
1601;SDS011;794;48.592;9.634;2022-10-31T15:57:56;8.97;;;5.80;;
1601;SDS011;794;48.592;9.634;2022-10-31T16:00:27;10.60;;;6.10;;
1601;SDS011;794;48.592;9.634;2022-10-31T16:03:03;8.03;;;5.37;;
1601;SDS011;794;48.592;9.634;2022-10-31T16:05:35;10.63;;;6.60;;
1601;SDS011;794;48.592;9.634;2022-10-31T16:08:19;9.17;;;6.13;;